Time;durP1;ratioP1;P1;durP2;ratioP2;P2;SDS_P1;SDS_P2;PMS_P1;PMS_P2;Temp;Humidity;BMP_temperature;BMP_pressure;BME280_temperature;BME280_humidity;BME280_pressure;Samples;Min_cycle;Max_cycle;Signal;HPM_P1;HPM_P2
2023/05/02 00:00:35;;;;;;;16.83;12.13;;;13.30;99.90;;;;;;4920111;29;20024;-94
2023/05/02 00:03:04;;;;;;;17.02;12.93;;;13.40;99.90;;;;;;4904314;29;20484;-93
2023/05/02 00:05:29;;;;;;;18.17;12.38;;;13.40;99.90;;;;;;4903667;29;20039;-94
2023/05/02 00:07:55;;;;;;;17.33;12.63;;;13.40;99.90;;;;;;4888327;29;20457;-92
2023/05/02 00:10:21;;;;;;;19.23;12.57;;;13.50;99.90;;;;;;4903606;29;20056;-92
2023/05/02 00:12:47;;;;;;;19.13;12.02;;;13.50;99.90;;;;;;4905063;29;20535;-94
2023/05/02 00:15:12;;;;;;;17.67;11.90;;;13.40;99.90;;;;;;4907944;29;20472;-93
2023/05/02 00:17:42;;;;;;;15.90;11.02;;;13.40;99.90;;;;;;4908555;29;20034;-93
2023/05/02 00:20:09;;;;;;;16.42;11.05;;;13.30;99.90;;;;;;4904128;29;20056;-91
2023/05/02 00:22:35;;;;;;;15.32;10.90;;;13.30;99.90;;;;;;4920020;29;20024;-91
2023/05/02 00:25:01;;;;;;;15.38;10.77;;;13.20;99.90;;;;;;4920539;29;20039;-93
2023/05/02 00:27:28;;;;;;;18.20;11.30;;;13.20;99.90;;;;;;4888036;29;20028;-92
2023/05/02 00:29:54;;;;;;;17.10;10.57;;;13.20;99.90;;;;;;4903367;29;20024;-92
2023/05/02 00:32:19;;;;;;;16.05;10.30;;;13.20;99.90;;;;;;4887819;29;20036;-92
2023/05/02 00:34:45;;;;;;;16.50;10.60;;;13.20;99.90;;;;;;4920078;29;20068;-92
2023/05/02 00:37:12;;;;;;;17.15;11.40;;;13.20;99.90;;;;;;4903617;29;20416;-91
2023/05/02 00:39:37;;;;;;;16.83;11.98;;;13.20;99.90;;;;;;4887768;29;20036;-90
2023/05/02 00:42:03;;;;;;;16.95;10.68;;;13.10;99.90;;;;;;4887845;29;20032;-92
2023/05/02 00:44:29;;;;;;;18.63;12.45;;;13.10;99.90;;;;;;4886571;29;20036;-92
2023/05/02 00:46:56;;;;;;;13.93;11.30;;;13.10;99.90;;;;;;4904026;29;20127;-92
2023/05/02 00:49:22;;;;;;;15.93;10.32;;;13.10;99.90;;;;;;4920291;29;20052;-90
2023/05/02 00:51:47;;;;;;;18.02;11.60;;;13.10;99.90;;;;;;4920481;29;20081;-91
2023/05/02 00:54:13;;;;;;;17.85;11.30;;;13.00;99.90;;;;;;4907536;29;20036;-92
2023/05/02 00:56:39;;;;;;;14.68;11.00;;;13.00;99.90;;;;;;4926311;29;20017;-91
2023/05/02 00:59:07;;;;;;;15.13;10.80;;;13.10;99.90;;;;;;4910696;29;20023;-92
2023/05/02 01:02:01;;;;;;;15.18;11.57;;;13.20;99.90;;;;;;4924852;29;20096;-91
2023/05/02 01:04:31;;;;;;;16.48;12.32;;;13.10;99.90;;;;;;4922785;29;20162;-88
2023/05/02 01:07:18;;;;;;;18.50;12.05;;;13.10;99.90;;;;;;4920343;29;20024;-91
2023/05/02 01:10:08;;;;;;;15.32;11.57;;;13.10;99.90;;;;;;4903330;29;20138;-94
2023/05/02 01:12:42;;;;;;;18.33;12.50;;;13.10;99.90;;;;;;4903184;29;20040;-94
2023/05/02 01:15:14;;;;;;;19.30;12.52;;;13.10;99.90;;;;;;4903161;29;20032;-93
2023/05/02 01:17:41;;;;;;;16.83;12.93;;;13.10;99.90;;;;;;4903132;29;20069;-93
2023/05/02 01:20:12;;;;;;;16.80;12.43;;;13.10;99.90;;;;;;4902922;29;20060;-93
2023/05/02 01:22:39;;;;;;;18.40;12.57;;;13.10;99.90;;;;;;4924872;29;20099;-94
2023/05/02 01:25:35;;;;;;;23.20;13.70;;;13.20;99.90;;;;;;4887296;29;20477;-92
2023/05/02 01:28:31;;;;;;;17.42;12.95;;;13.20;99.90;;;;;;4902715;29;20392;-91
2023/05/02 01:30:58;;;;;;;21.60;13.95;;;13.20;99.90;;;;;;4914792;29;20032;-92
2023/05/02 01:33:25;;;;;;;18.30;13.02;;;13.20;99.90;;;;;;4902510;29;20395;-93
2023/05/02 01:35:52;;;;;;;20.95;14.25;;;13.30;99.90;;;;;;4902361;29;20036;-94
2023/05/02 01:38:19;;;;;;;20.40;13.90;;;13.20;99.90;;;;;;4918932;29;20385;-91
2023/05/02 01:40:46;;;;;;;20.08;13.73;;;13.20;99.90;;;;;;4902356;29;20032;-92
2023/05/02 01:43:13;;;;;;;18.40;13.25;;;13.20;99.90;;;;;;4886668;29;20492;-92
2023/05/02 01:45:41;;;;;;;21.05;12.50;;;13.20;99.90;;;;;;4902020;29;20028;-91
2023/05/02 01:48:09;;;;;;;18.52;13.13;;;13.20;99.90;;;;;;4902298;29;20036;-92
2023/05/02 01:50:40;;;;;;;20.75;13.65;;;13.20;99.90;;;;;;4926387;29;20051;-92
2023/05/02 01:53:10;;;;;;;19.13;13.30;;;13.20;99.90;;;;;;4938185;29;20030;-92
2023/05/02 01:55:38;;;;;;;17.80;12.27;;;13.20;99.90;;;;;;4937539;29;20122;-91
2023/05/02 01:58:05;;;;;;;19.90;13.85;;;13.20;99.90;;;;;;4921243;29;20037;-92
2023/05/02 02:00:32;;;;;;;20.35;13.15;;;13.20;99.90;;;;;;4897335;29;20063;-92
2023/05/02 02:02:59;;;;;;;15.98;11.98;;;13.20;99.90;;;;;;4886341;29;20043;-91
2023/05/02 02:05:27;;;;;;;19.13;13.23;;;13.20;99.90;;;;;;4901951;29;20032;-90
2023/05/02 02:07:52;;;;;;;16.60;12.70;;;13.20;99.90;;;;;;4901468;29;20032;-91
2023/05/02 02:10:18;;;;;;;18.05;13.27;;;13.20;99.90;;;;;;4885951;29;20078;-92
2023/05/02 02:12:53;;;;;;;19.05;12.10;;;13.20;99.90;;;;;;4902200;29;20060;-92
2023/05/02 02:15:25;;;;;;;17.20;11.68;;;13.20;99.90;;;;;;4901999;29;20040;-91
2023/05/02 02:18:10;;;;;;;15.32;10.80;;;13.20;99.90;;;;;;4901458;29;20038;-92
2023/05/02 02:20:38;;;;;;;17.50;11.32;;;13.20;99.90;;;;;;4901900;29;20103;-93
2023/05/02 02:23:07;;;;;;;14.65;8.90;;;13.20;99.90;;;;;;4918639;29;20042;-93
2023/05/02 02:25:34;;;;;;;14.68;8.20;;;13.10;99.90;;;;;;4923657;29;20055;-90
2023/05/02 02:28:00;;;;;;;11.70;7.15;;;13.20;99.90;;;;;;4904393;29;20098;-92
2023/05/02 02:30:26;;;;;;;9.55;7.20;;;13.10;99.90;;;;;;4904353;29;20020;-93
2023/05/02 02:32:52;;;;;;;10.85;6.55;;;13.10;99.90;;;;;;4914086;29;20036;-93
2023/05/02 02:35:18;;;;;;;10.43;6.40;;;13.00;99.90;;;;;;4903890;29;20433;-92
2023/05/02 02:37:56;;;;;;;16.33;6.68;;;12.90;99.90;;;;;;4877924;29;20033;-90
2023/05/02 02:40:23;;;;;;;13.60;5.80;;;12.80;99.90;;;;;;4949650;28;20060;-93
2023/05/02 02:42:54;;;;;;;10.10;5.60;;;12.70;99.90;;;;;;4913834;29;20039;-93
2023/05/02 02:45:34;;;;;;;13.60;5.22;;;12.60;99.90;;;;;;4919480;29;20067;-93
2023/05/02 02:48:26;;;;;;;9.57;4.32;;;12.40;99.90;;;;;;4918968;29;20042;-94
2023/05/02 02:51:11;;;;;;;13.07;4.25;;;12.30;99.90;;;;;;4916707;29;20044;-91
2023/05/02 02:54:08;;;;;;;13.88;4.07;;;12.30;99.90;;;;;;4918170;29;20111;-91
2023/05/02 02:56:39;;;;;;;11.13;3.35;;;12.30;99.90;;;;;;4901306;29;20499;-92
2023/05/02 02:59:22;;;;;;;9.85;3.22;;;12.10;99.90;;;;;;4900640;29;20066;-92
2023/05/02 03:02:01;;;;;;;8.75;3.22;;;12.10;99.90;;;;;;4901242;29;20049;-92
2023/05/02 03:04:30;;;;;;;9.07;3.22;;;12.10;99.90;;;;;;4901569;29;20452;-92
2023/05/02 03:06:56;;;;;;;4.82;2.88;;;12.10;99.90;;;;;;4900753;29;20031;-93
2023/05/02 03:09:22;;;;;;;6.85;2.78;;;12.10;99.90;;;;;;4918450;29;20028;-92
2023/05/02 03:11:47;;;;;;;9.45;2.50;;;12.10;99.90;;;;;;4901270;29;20469;-92
2023/05/02 03:14:13;;;;;;;8.52;2.75;;;12.10;99.90;;;;;;4901270;29;20168;-93
2023/05/02 03:16:40;;;;;;;6.60;2.88;;;12.10;99.90;;;;;;4901307;29;20532;-93
2023/05/02 03:19:07;;;;;;;6.90;2.65;;;12.10;99.90;;;;;;4900906;29;20020;-92
2023/05/02 03:21:33;;;;;;;6.88;2.90;;;12.10;99.90;;;;;;4882670;29;20516;-93
2023/05/02 03:24:03;;;;;;;8.68;3.00;;;12.00;99.90;;;;;;4884942;29;20033;-93
2023/05/02 03:26:29;;;;;;;8.25;2.67;;;12.10;99.90;;;;;;4921611;29;20032;-94
2023/05/02 03:28:55;;;;;;;7.97;2.60;;;12.00;99.90;;;;;;4904819;29;20111;-93
2023/05/02 03:31:21;;;;;;;7.25;2.63;;;12.10;99.90;;;;;;4919264;29;20023;-92
2023/05/02 03:33:48;;;;;;;9.27;2.78;;;12.10;99.90;;;;;;4913497;29;20036;-92
2023/05/02 03:36:15;;;;;;;7.35;2.40;;;12.20;99.90;;;;;;4904652;29;20461;-93
2023/05/02 03:38:40;;;;;;;5.57;2.58;;;12.20;99.90;;;;;;4904556;29;20472;-91
2023/05/02 03:41:06;;;;;;;7.70;2.42;;;12.30;99.90;;;;;;4904105;29;20128;-93
2023/05/02 03:43:32;;;;;;;7.80;2.30;;;12.20;99.90;;;;;;4889174;29;20118;-92
2023/05/02 03:46:06;;;;;;;6.18;2.33;;;12.10;99.90;;;;;;4904637;29;20115;-93
2023/05/02 03:48:33;;;;;;;7.78;2.42;;;12.10;99.90;;;;;;4921205;29;20383;-92
2023/05/02 03:50:59;;;;;;;7.72;2.20;;;12.10;99.90;;;;;;4888968;29;20063;-93
2023/05/02 03:53:25;;;;;;;6.18;2.33;;;12.10;99.90;;;;;;4904254;29;20036;-92
2023/05/02 03:55:51;;;;;;;6.78;2.40;;;12.00;99.90;;;;;;4891402;29;20028;-93
2023/05/02 03:58:17;;;;;;;11.43;2.22;;;12.00;99.90;;;;;;4909513;29;20036;-94
2023/05/02 04:00:42;;;;;;;7.70;2.90;;;12.00;99.90;;;;;;4921524;29;20036;-93
2023/05/02 04:03:08;;;;;;;6.03;2.40;;;12.00;99.90;;;;;;4913888;29;20118;-93
2023/05/02 04:05:34;;;;;;;8.23;2.63;;;11.90;99.90;;;;;;4909020;29;20072;-94
2023/05/02 04:08:01;;;;;;;5.10;2.08;;;11.90;99.90;;;;;;4911266;29;20095;-89
2023/05/02 04:10:26;;;;;;;7.45;2.30;;;12.00;99.90;;;;;;4926929;28;20036;-93
2023/05/02 04:12:52;;;;;;;6.97;2.45;;;12.00;99.90;;;;;;4927414;28;20016;-87
2023/05/02 04:15:18;;;;;;;6.97;2.15;;;12.00;99.90;;;;;;4927524;29;20111;-90
2023/05/02 04:17:43;;;;;;;7.80;2.40;;;12.00;99.90;;;;;;4941102;28;20028;-91
2023/05/02 04:20:10;;;;;;;7.43;2.15;;;12.00;99.90;;;;;;4888871;29;20032;-92
2023/05/02 04:22:38;;;;;;;6.75;2.20;;;12.00;99.90;;;;;;4904658;29;20036;-92
2023/05/02 04:25:07;;;;;;;7.15;2.05;;;11.90;99.90;;;;;;4905324;29;20028;-92
2023/05/02 04:27:33;;;;;;;6.43;1.95;;;11.90;99.90;;;;;;4903936;29;20038;-94
2023/05/02 04:29:58;;;;;;;4.82;2.00;;;11.90;99.90;;;;;;4903453;29;20088;-93
2023/05/02 04:32:24;;;;;;;6.10;2.50;;;11.80;99.90;;;;;;4904000;29;20033;-94
2023/05/02 04:34:50;;;;;;;6.47;2.03;;;11.80;99.90;;;;;;4942886;28;20063;-95
2023/05/02 04:37:16;;;;;;;8.82;2.20;;;11.70;99.90;;;;;;4929444;28;20032;-94
2023/05/02 04:39:44;;;;;;;6.43;2.10;;;11.70;99.90;;;;;;4896508;29;20123;-94
2023/05/02 04:42:12;;;;;;;8.27;2.38;;;11.70;99.90;;;;;;4915719;29;20463;-94
2023/05/02 04:44:38;;;;;;;9.02;2.20;;;11.70;99.90;;;;;;4902499;29;20055;-94
2023/05/02 04:47:03;;;;;;;8.40;2.10;;;11.80;99.90;;;;;;4924442;29;20380;-93
2023/05/02 04:49:31;;;;;;;9.68;2.88;;;11.80;99.90;;;;;;4925899;29;20051;-95
2023/05/02 04:51:56;;;;;;;8.63;1.95;;;11.70;99.90;;;;;;4911767;29;20024;-95
2023/05/02 04:54:22;;;;;;;7.55;2.20;;;11.70;99.90;;;;;;4887336;29;20040;-95
2023/05/02 04:56:48;;;;;;;5.63;2.13;;;11.60;99.90;;;;;;4914013;29;20103;-94
2023/05/02 04:59:13;;;;;;;5.32;2.08;;;11.60;99.90;;;;;;4906016;29;20496;-95
2023/05/02 05:01:39;;;;;;;7.28;2.75;;;11.50;99.90;;;;;;4912468;29;20032;-96
2023/05/02 05:04:05;;;;;;;6.95;1.75;;;11.50;99.90;;;;;;4909604;29;20035;-94
2023/05/02 05:06:38;;;;;;;7.10;1.73;;;11.50;99.90;;;;;;4908570;29;20039;-94
2023/05/02 05:09:04;;;;;;;5.25;1.90;;;11.50;99.90;;;;;;4914785;29;20035;-94
2023/05/02 05:11:30;;;;;;;7.00;1.77;;;11.60;99.90;;;;;;4927397;28;20123;-93
2023/05/02 05:13:57;;;;;;;6.10;1.88;;;11.60;99.90;;;;;;4911083;29;20032;-94
2023/05/02 05:16:25;;;;;;;8.40;2.13;;;11.60;99.90;;;;;;4925126;29;20101;-95
2023/05/02 05:18:52;;;;;;;5.68;1.92;;;11.60;99.90;;;;;;4925742;29;20080;-95
2023/05/02 05:21:18;;;;;;;9.02;2.20;;;11.60;99.90;;;;;;4905933;29;20044;-94
2023/05/02 05:23:45;;;;;;;5.30;2.10;;;11.60;99.90;;;;;;4921367;29;20144;-94
2023/05/02 05:26:15;;;;;;;9.82;2.03;;;11.50;99.90;;;;;;4915927;29;20024;-91
2023/05/02 05:28:43;;;;;;;8.20;1.87;;;11.50;99.90;;;;;;5170633;23;20077;-95
2023/05/02 05:37:26;;;;;;;8.07;2.22;;;11.40;99.90;;;;;;5347078;23;20063;-93
2023/05/02 05:46:08;;;;;;;7.75;2.60;;;11.20;99.90;;;;;;5495411;23;20026;31
2023/05/02 05:51:05;;;;;;;9.55;2.90;;;11.00;99.90;;;;;;5013952;23;20051;-86
2023/05/02 05:58:47;;;;;;;8.77;2.70;;;11.00;99.90;;;;;;5330212;23;20067;-95
2023/05/02 06:11:39;;;;;;;13.05;2.83;;;11.00;99.90;;;;;;5655839;23;20466;-85
2023/05/02 06:40:25;;;;;;;10.13;2.55;;;10.90;99.90;;;;;;950967;23;20253;-90
2023/05/02 06:42:50;;;;;;;11.00;3.05;;;10.90;99.90;;;;;;4933921;29;20052;-96
2023/05/02 06:47:54;;;;;;;11.07;3.13;;;11.00;99.90;;;;;;4926978;23;20289;-96
2023/05/02 06:50:22;;;;;;;13.20;3.85;;;11.10;99.90;;;;;;4911226;29;20028;-94
2023/05/02 06:52:51;;;;;;;10.27;3.20;;;11.20;99.90;;;;;;4906322;29;20029;-95
2023/05/02 06:55:20;;;;;;;11.93;3.95;;;11.20;99.90;;;;;;4907304;29;20047;-93
2023/05/02 06:57:50;;;;;;;12.15;3.38;;;11.30;99.90;;;;;;4912422;29;20047;-95
2023/05/02 07:00:17;;;;;;;11.55;3.97;;;11.30;99.90;;;;;;4912299;29;20025;-93
2023/05/02 07:02:44;;;;;;;10.40;3.47;;;11.20;99.90;;;;;;4913482;29;20119;-93
2023/05/02 07:05:18;;;;;;;12.75;3.90;;;11.30;99.90;;;;;;4878742;29;20159;-89
2023/05/02 07:07:46;;;;;;;10.20;3.40;;;11.30;99.90;;;;;;4892424;29;20029;-94
2023/05/02 07:10:12;;;;;;;9.82;3.05;;;11.30;99.90;;;;;;4876711;29;20039;-86
2023/05/02 07:12:38;;;;;;;13.15;3.33;;;11.20;99.90;;;;;;4873520;29;20108;-95
2023/05/02 07:15:07;;;;;;;9.80;3.30;;;11.20;99.90;;;;;;4873918;29;20057;-96
2023/05/02 07:17:33;;;;;;;11.05;3.22;;;11.20;99.90;;;;;;4908058;29;20013;-93
2023/05/02 07:19:59;;;;;;;11.63;3.67;;;11.20;99.80;;;;;;4909381;29;20053;-94
2023/05/02 07:22:25;;;;;;;10.18;2.85;;;11.30;99.90;;;;;;4908887;29;20087;-92
2023/05/02 07:24:58;;;;;;;11.73;3.45;;;11.40;99.70;;;;;;4923273;29;20036;-94
2023/05/02 07:27:23;;;;;;;8.10;2.70;;;11.40;99.50;;;;;;4890638;29;20025;-96
2023/05/02 07:29:52;;;;;;;10.45;2.70;;;11.40;99.30;;;;;;4892768;29;20155;-95
2023/05/02 07:32:19;;;;;;;12.55;2.53;;;11.40;98.90;;;;;;4910890;29;20071;-93
2023/05/02 07:34:44;;;;;;;10.35;2.75;;;11.40;98.90;;;;;;4910836;29;20028;-95
2023/05/02 07:37:12;;;;;;;7.28;2.17;;;11.50;98.90;;;;;;4911292;29;20433;-95
2023/05/02 07:39:41;;;;;;;6.72;2.50;;;11.50;98.80;;;;;;4891039;29;20033;-95
2023/05/02 07:42:10;;;;;;;9.35;2.65;;;11.60;98.70;;;;;;4884354;29;20032;-96
2023/05/02 07:44:38;;;;;;;10.50;2.45;;;11.70;98.60;;;;;;4919922;29;20413;-96
2023/05/02 07:47:05;;;;;;;6.63;2.30;;;11.80;98.20;;;;;;4913973;29;20186;-95
2023/05/02 07:49:35;;;;;;;6.72;2.15;;;11.80;97.70;;;;;;4930784;29;20028;-95
2023/05/02 07:52:01;;;;;;;8.13;2.65;;;11.80;97.70;;;;;;4900134;29;20566;-95
2023/05/02 07:54:30;;;;;;;6.25;2.17;;;11.80;97.00;;;;;;4911035;29;20045;-95
2023/05/02 07:56:57;;;;;;;11.02;2.30;;;11.80;96.80;;;;;;4893720;29;20088;-93
2023/05/02 07:59:23;;;;;;;6.65;1.60;;;11.80;96.00;;;;;;4903217;29;20029;-93
2023/05/02 08:01:51;;;;;;;9.30;2.05;;;11.70;95.90;;;;;;4906339;29;20047;-96
2023/05/02 08:04:24;;;;;;;7.97;2.25;;;11.60;95.70;;;;;;4918847;29;20035;-95
2023/05/02 08:12:31;;;;;;;8.60;2.13;;;11.80;95.40;;;;;;5056812;23;20032;-92
2023/05/02 08:24:30;;;;;;;10.02;2.95;;;11.60;96.60;;;;;;4938871;28;20052;-95
2023/05/02 08:26:56;;;;;;;16.30;3.78;;;11.50;96.80;;;;;;5037829;23;20054;-89
2023/05/02 08:29:22;;;;;;;9.32;2.90;;;11.50;96.90;;;;;;4922098;29;20024;-91
2023/05/02 08:31:51;;;;;;;8.18;2.70;;;11.40;96.70;;;;;;4922800;29;20015;-91
2023/05/02 08:34:20;;;;;;;7.25;2.35;;;11.40;96.90;;;;;;4922832;29;20531;-91
2023/05/02 08:36:46;;;;;;;9.77;2.78;;;11.40;96.80;;;;;;4922550;29;20491;-91
2023/05/02 08:39:12;;;;;;;6.90;2.53;;;11.40;96.70;;;;;;4922400;29;20031;-90
2023/05/02 08:41:46;;;;;;;8.35;2.10;;;11.50;96.80;;;;;;4922282;29;20024;-91
2023/05/02 08:44:11;;;;;;;8.57;2.35;;;11.50;96.70;;;;;;4922998;29;20032;-92
2023/05/02 08:46:43;;;;;;;5.80;2.03;;;11.60;96.70;;;;;;4906558;29;20031;-91
2023/05/02 08:49:16;;;;;;;8.38;1.77;;;11.60;96.30;;;;;;4926338;28;20034;-91
2023/05/02 08:51:45;;;;;;;6.93;1.80;;;11.70;96.30;;;;;;4962118;28;20019;-90
2023/05/02 08:54:26;;;;;;;;;;;;;;;;;;;;;
2023/05/02 08:56:56;;;;;;;4.13;1.58;;;11.90;95.90;;;;;;4950985;29;20059;-88
2023/05/02 08:59:22;;;;;;;4.55;1.67;;;11.90;94.90;;;;;;4922937;29;20110;-89
2023/05/02 09:01:51;;;;;;;3.42;1.50;;;11.90;94.90;;;;;;4922437;29;20020;-89
2023/05/02 09:04:22;;;;;;;3.67;1.58;;;11.90;94.70;;;;;;4922331;29;20440;-90
2023/05/02 09:06:47;;;;;;;3.47;1.45;;;12.00;93.90;;;;;;4922260;29;20019;-90
2023/05/02 09:09:23;;;;;;;3.22;1.40;;;11.90;93.40;;;;;;4922221;29;20055;-90
2023/05/02 09:11:50;;;;;;;5.60;1.25;;;12.00;93.30;;;;;;4938459;29;20120;-89
2023/05/02 09:14:25;;;;;;;5.25;1.50;;;12.10;93.00;;;;;;4921795;29;20039;-90
2023/05/02 09:17:00;;;;;;;5.63;1.85;;;12.10;92.60;;;;;;4906385;29;20035;-91
2023/05/02 09:19:36;;;;;;;4.03;1.38;;;12.10;92.70;;;;;;4921760;29;20016;-91
2023/05/02 09:22:01;;;;;;;4.28;1.50;;;12.20;92.90;;;;;;4938697;29;20028;-91
2023/05/02 09:24:31;;;;;;;4.30;1.35;;;12.30;92.90;;;;;;4921851;29;20028;-90
2023/05/02 09:27:02;;;;;;;4.60;1.52;;;12.30;92.90;;;;;;4938725;29;20134;-91
2023/05/02 09:29:37;;;;;;;;;;;12.40;92.30;;;;;;4922264;29;20175;-89
2023/05/02 09:32:09;;;;;;;5.50;1.80;;;12.40;92.00;;;;;;4906533;29;19911;-89
2023/05/02 09:34:36;;;;;;;2.95;1.40;;;12.30;91.30;;;;;;4921183;29;20032;-91
2023/05/02 09:37:04;;;;;;;4.22;2.13;;;12.30;91.10;;;;;;4921361;29;20028;-90
2023/05/02 09:39:30;;;;;;;4.70;1.60;;;12.30;91.10;;;;;;4920647;29;20039;-89
2023/05/02 09:41:57;;;;;;;6.57;2.28;;;12.30;91.10;;;;;;4921481;29;20032;-90
2023/05/02 09:44:25;;;;;;;4.60;1.55;;;12.40;91.20;;;;;;4938077;29;20028;-90
2023/05/02 09:46:53;;;;;;;4.15;1.73;;;12.40;90.90;;;;;;4920887;29;20064;-90
2023/05/02 09:49:47;;;;;;;4.32;1.70;;;12.50;90.90;;;;;;4938203;29;20027;-89
2023/05/02 09:52:20;;;;;;;6.43;1.75;;;12.60;90.80;;;;;;4921196;29;20023;-91
2023/05/02 09:54:49;;;;;;;3.75;1.70;;;12.60;90.40;;;;;;4920888;29;20047;-91
2023/05/02 09:57:15;;;;;;;2.53;1.48;;;12.50;89.60;;;;;;4921118;29;20024;-91
2023/05/02 09:59:59;;;;;;;4.25;1.70;;;12.60;90.50;;;;;;4920908;29;20122;-90
2023/05/02 10:02:32;;;;;;;4.63;1.50;;;12.70;90.80;;;;;;4919568;29;20092;-90
2023/05/02 10:05:03;;;;;;;5.13;1.50;;;12.80;90.20;;;;;;4935053;29;20032;-91
2023/05/02 10:07:29;;;;;;;2.08;1.20;;;12.90;90.30;;;;;;4920784;29;20083;-91
2023/05/02 10:10:00;;;;;;;6.00;1.70;;;13.00;90.50;;;;;;4921065;29;20031;-90
2023/05/02 10:12:32;;;;;;;4.15;1.52;;;13.10;89.50;;;;;;4920975;29;20024;-91
2023/05/02 10:15:05;;;;;;;9.43;2.17;;;13.20;90.30;;;;;;4920735;29;20105;-90
2023/05/02 10:17:41;;;;;;;2.55;1.20;;;13.30;89.40;;;;;;4921013;29;20107;-91
2023/05/02 10:20:10;;;;;;;4.22;1.23;;;13.20;88.30;;;;;;4937066;29;20035;-90
2023/05/02 10:22:36;;;;;;;4.25;1.67;;;13.20;88.50;;;;;;4926847;29;20035;-90
2023/05/02 10:25:03;;;;;;;3.80;1.40;;;13.30;88.00;;;;;;4936270;29;20035;-88
2023/05/02 10:27:30;;;;;;;3.70;1.60;;;13.30;87.00;;;;;;4960004;28;20039;-90
2023/05/02 10:29:58;;;;;;;4.07;1.30;;;13.40;85.50;;;;;;4928439;28;20043;-93
2023/05/02 10:32:27;;;;;;;2.70;1.35;;;13.40;86.10;;;;;;4947759;28;20019;-90
2023/05/02 10:35:04;;;;;;;6.15;1.70;;;13.40;86.30;;;;;;4943364;29;20034;-90
2023/05/02 10:37:33;;;;;;;5.13;1.60;;;13.50;86.70;;;;;;4921802;29;20035;-89
2023/05/02 10:40:02;;;;;;;5.00;1.80;;;13.50;86.90;;;;;;4937800;29;20042;-89
2023/05/02 10:42:34;;;;;;;3.95;1.77;;;13.50;85.90;;;;;;4920869;29;20016;-90
2023/05/02 10:45:00;;;;;;;3.90;1.58;;;13.50;86.10;;;;;;4920676;29;20460;-91
2023/05/02 10:47:29;;;;;;;3.72;1.48;;;13.50;86.30;;;;;;4926107;29;20086;-90
2023/05/02 10:50:04;;;;;;;4.50;1.35;;;13.60;87.00;;;;;;4917333;29;20037;-89
2023/05/02 10:52:36;;;;;;;4.43;1.40;;;13.70;87.30;;;;;;4901906;29;20032;-90
2023/05/02 10:55:22;;;;;;;4.07;1.80;;;13.80;86.70;;;;;;4918252;29;20036;-91
2023/05/02 10:57:57;;;;;;;6.47;1.92;;;13.90;85.60;;;;;;4901024;29;20120;-90
2023/05/02 11:00:30;;;;;;;5.13;1.80;;;13.90;84.60;;;;;;4918352;29;20036;-89
2023/05/02 11:02:55;;;;;;;4.47;1.23;;;13.90;84.60;;;;;;4921713;29;20028;-87
2023/05/02 11:05:28;;;;;;;5.13;1.80;;;14.00;85.50;;;;;;4920376;29;20028;-92
2023/05/02 11:08:16;;;;;;;4.68;1.85;;;14.00;82.90;;;;;;4920232;29;20104;-90
2023/05/02 11:10:45;;;;;;;6.03;1.70;;;14.00;81.30;;;;;;4937066;29;20106;-88
2023/05/02 11:13:49;;;;;;;5.60;1.75;;;13.90;81.80;;;;;;4904676;29;20028;-90
2023/05/02 11:16:20;;;;;;;5.55;1.88;;;14.00;81.20;;;;;;4920522;29;20241;-90
2023/05/02 11:19:17;;;;;;;5.18;2.17;;;14.00;80.80;;;;;;4917891;29;20091;-91
2023/05/02 11:21:45;;;;;;;5.22;1.70;;;13.90;81.30;;;;;;4902052;29;20111;-90
2023/05/02 11:24:36;;;;;;;4.90;1.70;;;13.90;81.70;;;;;;4904240;29;20043;-90
2023/05/02 11:27:37;;;;;;;4.63;1.42;;;14.10;83.10;;;;;;4919536;29;20044;-90
2023/05/02 11:30:12;;;;;;;4.10;1.60;;;14.20;83.40;;;;;;4920133;29;20039;-91
2023/05/02 11:32:48;;;;;;;3.83;1.80;;;14.30;83.10;;;;;;4920106;29;20110;-91
2023/05/02 11:35:26;;;;;;;6.22;1.98;;;14.30;81.90;;;;;;4936969;29;20032;-90
2023/05/02 11:38:02;;;;;;;3.80;1.85;;;14.30;81.10;;;;;;4920082;29;20087;-89
2023/05/02 11:40:29;;;;;;;4.20;1.70;;;14.30;82.50;;;;;;4919884;29;20039;-90
2023/05/02 11:42:56;;;;;;;5.88;1.92;;;14.40;82.60;;;;;;4937217;29;20031;-89
2023/05/02 11:45:44;;;;;;;5.25;2.20;;;14.50;82.10;;;;;;4928364;29;20043;-90
2023/05/02 11:48:11;;;;;;;5.10;2.08;;;14.40;80.70;;;;;;4921793;29;20072;-90
2023/05/02 11:50:42;;;;;;;4.75;1.98;;;14.40;78.90;;;;;;4921099;29;20024;-90
2023/05/02 11:53:15;;;;;;;4.72;1.67;;;14.30;77.90;;;;;;4920251;29;20032;-90
2023/05/02 11:55:52;;;;;;;3.67;1.50;;;14.30;78.70;;;;;;4921681;29;20064;-90
2023/05/02 11:58:21;;;;;;;6.57;2.33;;;14.30;80.10;;;;;;4923786;29;20118;-89
2023/05/02 12:00:51;;;;;;;4.90;2.10;;;14.30;79.20;;;;;;4923729;29;20059;-91
2023/05/02 12:03:30;;;;;;;8.57;2.65;;;14.30;78.80;;;;;;4924224;29;20028;-90
2023/05/02 12:05:57;;;;;;;5.45;2.10;;;14.30;79.70;;;;;;4956707;28;20023;-90
2023/05/02 12:08:27;;;;;;;4.47;2.25;;;14.40;79.80;;;;;;4965829;28;20088;-90
2023/05/02 12:10:54;;;;;;;5.20;2.10;;;14.40;80.00;;;;;;4965112;28;20012;-90
2023/05/02 12:13:25;;;;;;;5.70;2.15;;;14.50;79.50;;;;;;4977967;29;20318;-90
2023/05/02 12:15:55;;;;;;;6.60;2.30;;;14.60;79.80;;;;;;4932203;29;20115;-92
2023/05/02 12:18:23;;;;;;;5.82;2.00;;;14.60;78.30;;;;;;4939953;29;20062;-90
2023/05/02 12:20:55;;;;;;;6.75;2.45;;;14.70;79.10;;;;;;4922962;29;20068;-90
2023/05/02 12:23:28;;;;;;;5.45;2.35;;;14.80;78.80;;;;;;4922701;29;20028;-91
2023/05/02 12:25:53;;;;;;;6.35;2.60;;;14.80;79.20;;;;;;4906566;29;20051;-88
2023/05/02 12:28:22;;;;;;;6.72;2.30;;;14.70;77.20;;;;;;4905958;29;20043;-90
2023/05/02 12:30:52;;;;;;;8.10;2.50;;;14.70;76.90;;;;;;4888413;29;20021;-89
2023/05/02 12:33:18;;;;;;;4.25;2.00;;;14.70;77.90;;;;;;4904112;29;20413;-89
2023/05/02 12:35:47;;;;;;;6.90;2.20;;;14.70;77.50;;;;;;4922444;29;20038;-90
2023/05/02 12:38:29;;;;;;;8.60;2.25;;;14.70;77.60;;;;;;4922307;29;20122;-89
2023/05/02 12:40:58;;;;;;;6.22;2.40;;;14.70;76.50;;;;;;4938979;29;20023;-89
2023/05/02 12:43:23;;;;;;;6.72;1.90;;;14.60;75.70;;;;;;4909397;29;20028;-89
2023/05/02 12:45:52;;;;;;;5.90;2.20;;;14.60;76.30;;;;;;4887979;29;20032;-90
2023/05/02 12:48:26;;;;;;;7.03;2.65;;;14.60;77.30;;;;;;4918841;29;20065;-90
2023/05/02 12:50:55;;;;;;;5.65;2.40;;;14.70;78.20;;;;;;4903274;29;20059;-90
2023/05/02 12:53:42;;;;;;;10.80;2.63;;;14.70;76.80;;;;;;4919272;29;20059;-89
2023/05/02 12:56:09;;;;;;;7.07;2.42;;;14.70;74.10;;;;;;4903241;29;20493;-90
2023/05/02 12:58:48;;;;;;;5.75;2.50;;;14.50;74.00;;;;;;4903408;29;20044;-89
2023/05/02 13:01:14;;;;;;;8.05;2.88;;;14.50;74.10;;;;;;4906108;29;20123;-88
2023/05/02 13:03:42;;;;;;;5.40;2.90;;;14.50;74.80;;;;;;4927409;29;20031;-90
2023/05/02 13:06:11;;;;;;;7.88;2.50;;;14.50;74.00;;;;;;4937739;29;20028;-90
2023/05/02 13:08:51;;;;;;;;;;;;;;;;;;;;;
2023/05/02 13:11:19;;;;;;;6.68;2.50;;;14.60;74.70;;;;;;4923557;29;20670;-90
2023/05/02 13:17:31;;;;;;;9.38;2.95;;;14.70;74.10;;;;;;4898520;29;20040;-88
2023/05/02 13:19:59;;;;;;;6.78;2.53;;;14.70;74.80;;;;;;4923148;29;20046;-90
2023/05/02 13:22:27;;;;;;;5.28;2.30;;;14.80;76.70;;;;;;4922407;29;20051;-89
2023/05/02 13:24:58;;;;;;;6.95;2.65;;;14.90;77.30;;;;;;4915666;29;20111;-90
2023/05/02 13:27:24;;;;;;;7.85;2.80;;;15.00;77.50;;;;;;4908926;29;20556;-90
2023/05/02 13:32:42;;;;;;;6.82;2.85;;;15.00;76.20;;;;;;4913813;29;20040;-90
2023/05/02 13:35:12;;;;;;;9.43;2.83;;;15.10;76.20;;;;;;4905387;29;20036;-90
2023/05/02 13:37:41;;;;;;;6.85;2.70;;;15.20;76.30;;;;;;4938685;29;20506;-88
2023/05/02 13:40:13;;;;;;;5.75;2.30;;;15.20;76.30;;;;;;4905694;29;20036;-89
2023/05/02 13:42:38;;;;;;;11.68;2.83;;;15.30;76.30;;;;;;4894799;29;20035;-90
2023/05/02 13:45:07;;;;;;;5.75;2.53;;;15.30;72.70;;;;;;4938415;29;20012;-89
2023/05/02 13:47:33;;;;;;;8.43;2.45;;;15.20;73.70;;;;;;4941455;28;20042;-88
2023/05/02 13:49:58;;;;;;;5.65;2.42;;;15.20;73.30;;;;;;4944157;28;20012;-89
2023/05/02 13:52:24;;;;;;;6.60;2.60;;;15.20;73.30;;;;;;4944471;29;20039;-89
2023/05/02 13:54:52;;;;;;;6.13;2.83;;;15.20;73.90;;;;;;4932887;29;20036;-90
2023/05/02 13:57:22;;;;;;;5.95;2.67;;;15.20;73.50;;;;;;4921405;29;20114;-89
2023/05/02 13:59:48;;;;;;;7.47;2.42;;;15.20;72.90;;;;;;4938560;29;20055;-89
2023/05/02 14:02:14;;;;;;;10.75;3.30;;;15.10;72.00;;;;;;4938026;29;20015;-89
2023/05/02 14:04:40;;;;;;;7.38;2.63;;;15.10;73.30;;;;;;4920057;29;20480;-90
2023/05/02 14:07:05;;;;;;;7.10;2.75;;;15.10;74.30;;;;;;4919839;29;20480;-89
2023/05/02 14:09:31;;;;;;;8.18;2.80;;;15.20;75.00;;;;;;4920707;29;20428;-90
2023/05/02 14:12:02;;;;;;;8.95;2.97;;;15.20;74.10;;;;;;4907089;29;20036;-90
2023/05/02 14:14:27;;;;;;;4.35;2.20;;;15.20;73.60;;;;;;4920304;29;20111;-90
2023/05/02 14:16:56;;;;;;;9.48;3.08;;;15.30;74.10;;;;;;4937716;29;20102;-90
2023/05/02 14:19:24;;;;;;;7.35;3.13;;;15.20;72.20;;;;;;4937161;29;20027;-89